createdAt,value
2016-11-04T00:00:42.896Z,5.3
2016-11-04T00:01:52.872Z,5.36
2016-11-04T00:03:03.217Z,5.28
2016-11-04T00:04:12.889Z,5.24
2016-11-04T00:05:22.940Z,5.28
2016-11-04T00:06:33.241Z,5.16
2016-11-04T00:07:43.526Z,5.16
2016-11-04T00:08:53.810Z,5.08
2016-11-04T00:10:03.477Z,5.2
2016-11-04T00:11:13.498Z,5.1
2016-11-04T00:12:23.785Z,5.13
2016-11-04T00:13:33.798Z,5.12
2016-11-04T00:14:44.064Z,5.18
2016-11-04T00:15:54.341Z,5.16
2016-11-04T00:17:04.312Z,5.08
2016-11-04T00:18:14.633Z,5.05
2016-11-04T00:19:24.905Z,4.97
2016-11-04T00:20:35.201Z,5.03
2016-11-04T00:21:45.160Z,5.02
2016-11-04T00:22:55.132Z,5
2016-11-04T00:24:05.411Z,4.9
2016-11-04T00:25:15.374Z,4.83
2016-11-04T00:26:25.051Z,4.79
2016-11-04T00:27:35.337Z,4.79
2016-11-04T00:28:45.318Z,4.78
2016-11-04T00:29:55.611Z,4.83
2016-11-04T00:31:05.887Z,4.69
2016-11-04T00:32:16.155Z,4.72
2016-11-04T00:33:25.811Z,4.71
2016-11-04T00:34:35.792Z,4.78
2016-11-04T00:35:46.069Z,4.69
2016-11-04T00:36:56.336Z,4.72
2016-11-04T00:38:06.016Z,4.72
2016-11-04T00:39:15.994Z,4.69
2016-11-04T00:40:26.273Z,4.61
2016-11-04T00:41:35.937Z,4.61
2016-11-04T00:42:45.903Z,4.5
2016-11-04T00:43:55.921Z,4.51
2016-11-04T00:45:05.583Z,4.58
2016-11-04T00:46:15.884Z,4.53
2016-11-04T00:47:25.853Z,4.53
2016-11-04T00:48:35.848Z,4.51
2016-11-04T00:49:46.135Z,4.5
2016-11-04T00:50:56.478Z,4.48
2016-11-04T00:52:06.767Z,4.47
2016-11-04T00:53:16.754Z,4.44
2016-11-04T00:54:27.033Z,4.5
2016-11-04T00:55:36.988Z,4.54
2016-11-04T00:56:47.275Z,4.51
2016-11-04T00:57:57.556Z,4.54
2016-11-04T00:59:07.531Z,4.44
2016-11-04T01:00:17.495Z,4.5
2016-11-04T01:01:27.783Z,4.44
2016-11-04T01:02:37.753Z,4.47
2016-11-04T01:03:47.410Z,4.46
2016-11-04T01:04:57.682Z,4.35
2016-11-04T01:06:07.960Z,4.33
2016-11-04T01:07:17.931Z,4.47
2016-11-04T01:08:28.217Z,4.44
2016-11-04T01:09:38.488Z,4.46
2016-11-04T01:10:48.151Z,4.35
2016-11-04T01:11:58.433Z,4.32
2016-11-04T01:13:08.398Z,4.33
2016-11-04T01:14:18.721Z,4.28
2016-11-04T01:15:28.988Z,4.28
2016-11-04T01:16:39.266Z,4.22
2016-11-04T01:17:49.234Z,4.2
2016-11-04T01:18:59.214Z,4.15
2016-11-04T01:20:09.511Z,4.11
2016-11-04T01:21:19.477Z,4.11
2016-11-04T01:22:29.452Z,4.15
2016-11-04T01:23:39.729Z,4.12
2016-11-04T01:24:49.701Z,4.11
2016-11-04T01:25:59.994Z,4.08
2016-11-04T01:27:10.284Z,4.11
2016-11-04T01:28:20.251Z,4.08
2016-11-04T01:29:30.546Z,4.04
2016-11-04T01:30:40.816Z,3.94
2016-11-04T01:31:51.085Z,3.93
2016-11-04T01:33:00.751Z,4.03
2016-11-04T01:34:11.023Z,3.99
2016-11-04T01:35:21.295Z,3.94
2016-11-04T01:36:31.309Z,4.04
2016-11-04T01:37:41.603Z,4.07
2016-11-04T01:38:51.907Z,4.04
2016-11-04T01:40:02.226Z,3.99
2016-11-04T01:41:12.493Z,4.02
2016-11-04T01:42:22.794Z,3.96
2016-11-04T01:43:32.785Z,3.96
2016-11-04T01:44:43.065Z,4.02
2016-11-04T01:45:53.356Z,3.99
2016-11-04T01:47:03.622Z,3.97
2016-11-04T01:48:13.598Z,4
2016-11-04T01:49:23.866Z,4.03
2016-11-04T01:50:34.143Z,3.92
2016-11-04T01:51:44.460Z,3.92
2016-11-04T01:52:54.741Z,3.86
2016-11-04T01:54:04.703Z,3.92
2016-11-04T01:55:14.988Z,3.85
2016-11-04T01:56:24.955Z,3.84
2016-11-04T01:57:35.244Z,3.9
2016-11-04T01:58:45.263Z,3.89
2016-11-04T01:59:55.251Z,3.79
2016-11-04T02:01:05.523Z,3.75
2016-11-04T02:02:15.799Z,3.75
2016-11-04T02:03:25.780Z,3.67
2016-11-04T02:04:35.783Z,3.66
2016-11-04T02:05:45.769Z,3.66
2016-11-04T02:06:56.065Z,3.49
2016-11-04T02:08:06.338Z,3.57
2016-11-04T02:09:16.350Z,3.53
2016-11-04T02:10:26.319Z,3.58
2016-11-04T02:11:36.595Z,3.54
2016-11-04T02:12:46.883Z,3.54
2016-11-04T02:13:57.163Z,3.53
2016-11-04T02:15:07.447Z,3.53
2016-11-04T02:16:17.433Z,3.48
2016-11-04T02:17:27.705Z,3.42
2016-11-04T02:18:37.997Z,3.45
2016-11-04T02:19:47.669Z,3.53
2016-11-04T02:20:57.960Z,3.43
2016-11-04T02:22:07.972Z,3.4
2016-11-04T02:23:18.280Z,3.53
2016-11-04T02:24:28.565Z,3.46
2016-11-04T02:25:38.841Z,3.43
2016-11-04T02:26:48.809Z,3.45
2016-11-04T02:27:58.769Z,3.43
2016-11-04T02:29:08.742Z,3.45
2016-11-04T02:30:19.045Z,3.45
2016-11-04T02:31:29.326Z,3.45
2016-11-04T02:32:39.599Z,3.42
2016-11-04T02:33:49.885Z,3.4
2016-11-04T02:34:59.914Z,3.42
2016-11-04T02:36:09.586Z,3.34
2016-11-04T02:37:19.550Z,3.34
2016-11-04T02:38:29.519Z,3.42
2016-11-04T02:39:38.892Z,3.43
2016-11-04T02:40:49.173Z,3.42
2016-11-04T02:41:58.844Z,3.42
2016-11-04T02:43:08.812Z,3.42
2016-11-04T02:44:18.783Z,3.46
2016-11-04T02:45:29.124Z,3.48
2016-11-04T02:46:39.412Z,3.35
2016-11-04T02:47:49.691Z,3.45
2016-11-04T02:48:59.960Z,3.37
2016-11-04T02:50:10.241Z,3.39
2016-11-04T02:51:20.513Z,3.26
2016-11-04T02:52:30.795Z,3.42
2016-11-04T02:53:40.776Z,3.39
2016-11-04T02:54:50.752Z,3.3
2016-11-04T02:56:01.036Z,3.34
2016-11-04T02:57:11.340Z,3.37
2016-11-04T02:58:20.992Z,3.32
2016-11-04T02:59:30.963Z,3.32
2016-11-04T03:00:40.666Z,3.39
2016-11-04T03:32:05.407Z,-0.33
2016-11-04T03:33:15.675Z,-0.36
2016-11-04T03:34:25.949Z,-0.37
2016-11-04T03:35:36.227Z,-0.27
2016-11-04T03:36:46.488Z,-0.3
2016-11-04T03:37:56.460Z,-0.2
2016-11-04T03:39:06.433Z,-0.02
2016-11-04T03:40:16.722Z,0.2
2016-11-04T03:41:27.014Z,0.31
2016-11-04T03:42:37.287Z,0.47
2016-11-04T03:43:47.563Z,0.67
2016-11-04T03:44:57.860Z,0.94
2016-11-04T03:46:07.833Z,1.04
2016-11-04T03:47:18.122Z,1.22
2016-11-04T03:48:28.445Z,1.39
2016-11-04T03:49:38.712Z,1.54
2016-11-04T03:50:49.003Z,1.78
2016-11-04T03:51:59.282Z,1.82
2016-11-04T03:53:09.255Z,1.9
2016-11-04T03:54:19.238Z,2.09
2016-11-04T03:55:28.909Z,2.13
2016-11-04T03:56:39.186Z,2.26
2016-11-04T03:57:49.194Z,2.41
2016-11-04T03:58:59.475Z,2.47
2016-11-04T04:00:09.460Z,2.58
2016-11-04T04:01:18.843Z,2.63
2016-11-04T04:02:29.125Z,2.66
2016-11-04T04:03:39.396Z,2.72
2016-11-04T04:04:49.675Z,2.78
2016-11-04T04:05:59.949Z,2.84
2016-11-04T04:07:10.206Z,2.78
2016-11-04T04:08:20.493Z,2.87
2016-11-04T04:09:30.775Z,2.91
2016-11-04T04:10:40.748Z,2.96
2016-11-04T04:11:50.732Z,2.93
2016-11-04T04:13:00.405Z,2.96
2016-11-04T04:14:10.680Z,3.11
2016-11-04T04:15:20.997Z,3.05
2016-11-04T04:16:30.654Z,3.14
2016-11-04T04:17:40.630Z,3.09
2016-11-04T04:18:50.593Z,3.11
2016-11-04T04:20:00.885Z,3.08
2016-11-04T04:21:10.876Z,3.09
2016-11-04T04:22:21.158Z,3.13
2016-11-04T04:23:31.449Z,3.13
2016-11-04T04:24:41.717Z,3.19
2016-11-04T04:25:51.385Z,3.16
2016-11-04T04:27:01.575Z,3.16
2016-11-04T04:28:11.853Z,3.11
2016-11-04T04:29:22.140Z,3.26
2016-11-04T04:30:32.414Z,3.2
2016-11-04T04:31:42.700Z,3.27
2016-11-04T04:32:52.375Z,3.23
2016-11-04T04:34:02.349Z,3.27
2016-11-04T04:35:12.632Z,3.26
2016-11-04T04:36:22.928Z,3.26
2016-11-04T04:37:33.205Z,3.3
2016-11-04T04:38:43.181Z,3.27
2016-11-04T04:39:53.144Z,3.3
2016-11-04T04:41:03.435Z,3.37
2016-11-04T04:42:13.409Z,3.34
2016-11-04T04:43:23.371Z,3.39
2016-11-04T04:44:33.697Z,3.32
2016-11-04T04:45:43.971Z,3.35
2016-11-04T04:46:54.187Z,3.34
2016-11-04T04:48:04.451Z,3.32
2016-11-04T04:49:14.417Z,3.37
2016-11-04T04:50:24.700Z,3.42
2016-11-04T04:51:35.000Z,3.37
2016-11-04T04:52:45.288Z,3.3
2016-11-04T04:53:55.564Z,3.29
2016-11-04T04:55:05.878Z,3.35
2016-11-04T04:56:16.162Z,3.27
2016-11-04T04:57:26.143Z,3.42
2016-11-04T04:58:36.432Z,3.34
2016-11-04T04:59:46.713Z,3.34
2016-11-04T05:00:56.994Z,3.32
2016-11-04T05:02:06.980Z,3.35
2016-11-04T05:03:17.262Z,3.37
2016-11-04T05:04:27.559Z,3.3
2016-11-04T05:05:37.850Z,3.32
2016-11-04T05:06:48.122Z,3.3
2016-11-04T05:07:58.099Z,3.3
2016-11-04T05:09:08.367Z,3.24
2016-11-04T05:10:18.071Z,3.26
2016-11-04T05:11:28.347Z,3.3
2016-11-04T05:12:38.317Z,3.3
2016-11-04T05:13:48.607Z,3.37
2016-11-04T05:14:58.587Z,3.26
2016-11-04T05:16:08.557Z,3.3
2016-11-04T05:17:18.857Z,3.34
2016-11-04T05:18:28.820Z,3.3
2016-11-04T05:19:39.102Z,3.24
2016-11-04T05:20:48.459Z,3.29
2016-11-04T05:21:58.426Z,3.24
2016-11-04T05:23:08.442Z,3.24
2016-11-04T05:24:18.400Z,3.2
2016-11-04T05:25:28.678Z,3.2
2016-11-04T05:26:38.962Z,3.26
2016-11-04T05:27:48.640Z,3.23
2016-11-04T05:28:58.606Z,3.26
2016-11-04T05:30:08.584Z,3.26
2016-11-04T05:31:18.868Z,3.29
2016-11-04T05:32:28.858Z,3.27
2016-11-04T05:33:38.838Z,3.26
2016-11-04T05:34:48.794Z,3.2
2016-11-04T05:35:58.456Z,3.3
2016-11-04T05:37:08.127Z,3.32
2016-11-04T05:38:18.410Z,3.35
2016-11-04T05:39:28.777Z,3.34
2016-11-04T05:40:39.059Z,3.34
2016-11-04T05:41:48.451Z,3.32
2016-11-04T05:42:58.740Z,3.29
2016-11-04T05:44:09.027Z,3.39
2016-11-04T05:45:19.316Z,3.27
2016-11-04T05:46:29.291Z,3.34
2016-11-04T05:47:39.569Z,3.35
2016-11-04T05:48:49.552Z,3.35
2016-11-04T05:49:59.872Z,3.35
2016-11-04T05:51:09.847Z,3.35
2016-11-04T05:52:19.828Z,3.46
2016-11-04T05:53:30.106Z,3.42
2016-11-04T05:54:40.388Z,3.48
2016-11-04T05:55:50.667Z,3.39
2016-11-04T05:57:00.964Z,3.51
2016-11-04T05:58:10.637Z,3.48
2016-11-04T05:59:20.606Z,3.4
2016-11-04T06:00:30.877Z,3.53
2016-11-04T06:01:41.160Z,3.45
2016-11-04T06:02:51.125Z,3.49
2016-11-04T06:04:00.815Z,3.51
2016-11-04T06:05:11.094Z,3.6
2016-11-04T06:06:21.371Z,3.64
2016-11-04T06:07:31.352Z,3.69
2016-11-04T06:08:41.648Z,3.64
2016-11-04T06:09:51.321Z,3.74
2016-11-04T06:11:01.647Z,3.92
2016-11-04T06:12:11.008Z,3.9
2016-11-04T06:13:21.300Z,4
2016-11-04T06:14:31.600Z,4.14
2016-11-04T06:15:41.888Z,4.12
2016-11-04T06:16:52.154Z,4.17
2016-11-04T06:18:02.112Z,4.39
2016-11-04T06:19:12.079Z,4.54
2016-11-04T06:20:22.425Z,4.53
2016-11-04T06:21:32.702Z,4.58
2016-11-04T06:22:42.676Z,4.72
2016-11-04T06:23:52.665Z,4.83
2016-11-04T06:25:02.342Z,4.94
2016-11-04T06:26:12.300Z,5.09
2016-11-04T06:27:22.586Z,5.23
2016-11-04T06:28:32.563Z,5.27
2016-11-04T06:29:42.567Z,5.27
2016-11-04T06:30:52.854Z,5.36
2016-11-04T06:32:03.217Z,5.49
2016-11-04T06:33:13.209Z,5.62
2016-11-04T06:34:23.177Z,5.73
2016-11-04T06:35:33.491Z,5.8
2016-11-04T06:36:43.776Z,5.89
2016-11-04T06:37:53.742Z,5.96
2016-11-04T06:39:03.102Z,6.14
2016-11-04T06:40:13.494Z,6.29
2016-11-04T06:41:23.469Z,6.4
2016-11-04T06:42:33.762Z,6.39
2016-11-04T06:43:44.038Z,6.34
2016-11-04T06:44:53.408Z,6.44
2016-11-04T06:46:03.692Z,6.44
2016-11-04T06:47:13.353Z,6.54
2016-11-04T06:48:23.641Z,6.54
2016-11-04T06:49:33.622Z,6.54
2016-11-04T06:50:43.603Z,6.52
2016-11-04T06:51:53.890Z,6.6
2016-11-04T06:53:03.892Z,6.6
2016-11-04T06:54:14.175Z,6.65
2016-11-04T06:55:24.186Z,6.68
2016-11-04T06:56:33.847Z,6.64
2016-11-04T06:57:44.129Z,6.72
2016-11-04T06:58:54.406Z,6.55
2016-11-04T07:00:03.763Z,6.57
2016-11-04T07:01:13.746Z,6.52
2016-11-04T07:02:23.715Z,6.49
2016-11-04T07:03:33.381Z,6.49
2016-11-04T07:04:43.653Z,6.46
2016-11-04T07:05:53.626Z,6.39
2016-11-04T07:07:03.917Z,6.43
2016-11-04T07:08:13.894Z,6.44
2016-11-04T07:09:23.261Z,6.42
2016-11-04T07:10:33.543Z,6.47
2016-11-04T07:11:43.542Z,6.54
2016-11-04T07:12:53.562Z,6.6
2016-11-04T07:14:03.848Z,6.68
2016-11-04T07:15:13.747Z,6.68
2016-11-04T07:16:23.716Z,6.68
2016-11-04T07:17:34.047Z,6.61
2016-11-04T07:18:44.325Z,6.8
2016-11-04T07:19:54.606Z,6.86
2016-11-04T07:21:04.917Z,6.93
2016-11-04T07:22:14.884Z,6.98
2016-11-04T07:23:24.570Z,6.94
2016-11-04T07:24:34.543Z,6.98
2016-11-04T07:25:44.536Z,7
2016-11-04T07:26:54.805Z,6.97
2016-11-04T07:28:04.506Z,7.01
2016-11-04T07:29:14.479Z,6.91
2016-11-04T07:30:24.139Z,7.05
2016-11-04T07:31:34.124Z,7.05
2016-11-04T07:32:44.104Z,7.15
2016-11-04T07:33:54.084Z,7.15
2016-11-04T07:35:04.075Z,7.22
2016-11-04T07:36:14.362Z,7.18
2016-11-04T07:37:24.342Z,7.18
2016-11-04T07:38:34.302Z,7.13
2016-11-04T07:39:44.272Z,7.12
2016-11-04T07:40:54.238Z,7.09
2016-11-04T07:42:04.211Z,7.11
2016-11-04T07:43:14.504Z,7.11
2016-11-04T07:44:24.808Z,7.12
2016-11-04T07:45:35.099Z,7.13
2016-11-04T07:46:45.401Z,7.16
2016-11-04T07:47:55.383Z,7.19
2016-11-04T07:49:05.676Z,7.16
2016-11-04T07:50:15.637Z,7.15
2016-11-04T07:51:25.609Z,7.39
2016-11-04T07:52:35.892Z,7.49
2016-11-04T07:53:46.173Z,7.56
2016-11-04T07:54:57.626Z,7.68
2016-11-04T07:56:07.994Z,7.55
2016-11-04T07:57:18.038Z,7.61
2016-11-04T07:58:28.090Z,7.61
2016-11-04T07:59:38.194Z,7.71
2016-11-04T08:00:48.709Z,7.85
2016-11-04T08:01:59.058Z,7.88
2016-11-04T08:03:09.080Z,7.98
2016-11-04T08:04:19.200Z,8.09
2016-11-04T08:05:29.262Z,8.04
2016-11-04T08:06:39.603Z,8.04
2016-11-04T08:07:49.617Z,8.11
2016-11-04T08:08:59.313Z,8.11
2016-11-04T08:10:09.321Z,8.19
2016-11-04T08:11:19.002Z,8.19
2016-11-04T08:12:29.017Z,8.35
2016-11-04T08:13:38.426Z,8.39
2016-11-04T08:14:48.463Z,8.49
2016-11-04T08:15:58.449Z,8.43
2016-11-04T08:17:08.771Z,8.46
2016-11-04T08:18:19.066Z,8.44
2016-11-04T08:19:29.080Z,8.43
2016-11-04T08:20:38.450Z,8.44
2016-11-04T08:21:48.448Z,8.58
2016-11-04T08:22:58.447Z,8.54
2016-11-04T08:24:08.452Z,8.65
2016-11-04T08:25:18.756Z,8.68
2016-11-04T08:26:29.040Z,8.67
2016-11-04T08:27:39.091Z,8.57
2016-11-04T08:28:49.485Z,8.54
2016-11-04T08:29:59.519Z,8.47
2016-11-04T08:31:09.503Z,8.46
2016-11-04T08:32:20.039Z,8.44
2016-11-04T08:33:30.023Z,8.47
2016-11-04T08:34:40.308Z,8.57
2016-11-04T08:35:50.348Z,8.65
2016-11-04T08:37:00.361Z,8.68
2016-11-04T08:38:10.692Z,8.71
2016-11-04T08:39:20.679Z,8.74
2016-11-04T08:40:30.965Z,8.77
2016-11-04T08:41:41.267Z,8.72
2016-11-04T08:42:51.619Z,8.57
2016-11-04T08:44:01.934Z,8.6
2016-11-04T08:45:12.247Z,8.54
2016-11-04T08:46:22.286Z,8.67
2016-11-04T08:47:31.990Z,8.68
2016-11-04T08:48:42.373Z,8.61
2016-11-04T08:49:52.705Z,8.68
2016-11-04T08:51:02.704Z,8.61
2016-11-04T08:52:13.029Z,8.6
2016-11-04T08:53:23.348Z,8.71
2016-11-04T08:54:33.347Z,8.74
2016-11-04T08:55:43.632Z,8.76
2016-11-04T08:56:53.633Z,8.71
2016-11-04T08:58:03.929Z,8.8
2016-11-04T08:59:13.923Z,8.87
2016-11-04T09:00:23.333Z,8.85
2016-11-04T09:01:33.631Z,8.79
2016-11-04T09:02:43.949Z,8.76
2016-11-04T09:03:54.249Z,8.82
2016-11-04T09:05:03.913Z,8.76
2016-11-04T09:06:13.912Z,8.74
2016-11-04T09:07:23.903Z,8.97
2016-11-04T09:08:34.226Z,8.95
2016-11-04T09:09:44.221Z,8.74
2016-11-04T09:10:54.245Z,8.79
2016-11-04T09:12:04.530Z,8.72
2016-11-04T09:13:14.227Z,8.68
2016-11-04T09:14:24.263Z,8.74
2016-11-04T09:15:34.584Z,8.82
2016-11-04T09:16:44.272Z,8.79
2016-11-04T09:17:54.591Z,8.86
2016-11-04T09:19:05.106Z,8.97
2016-11-04T09:20:15.404Z,9.04
2016-11-04T09:21:25.702Z,9.04
2016-11-04T09:22:36.008Z,9.04
2016-11-04T09:23:46.311Z,9.09
2016-11-04T09:24:56.612Z,9.12
2016-11-04T09:26:06.955Z,9.16
2016-11-04T09:27:17.253Z,9.14
2016-11-04T09:28:27.256Z,9.04
2016-11-04T09:29:37.558Z,8.95
2016-11-04T09:30:47.233Z,9.05
2016-11-04T09:31:57.235Z,8.98
2016-11-04T09:33:07.246Z,9.09
2016-11-04T09:34:16.934Z,9.14
2016-11-04T09:35:26.932Z,9.05
2016-11-04T09:36:37.225Z,9.08
2016-11-04T09:37:46.916Z,8.98
2016-11-04T09:38:56.935Z,9.03
2016-11-04T09:40:06.608Z,8.97
2016-11-04T09:41:16.900Z,8.97
2016-11-04T09:42:26.591Z,8.76
2016-11-04T09:43:36.608Z,8.85
2016-11-04T09:44:46.922Z,8.79
2016-11-04T09:45:57.230Z,8.9
2016-11-04T09:47:07.519Z,8.82
2016-11-04T09:48:17.836Z,8.76
2016-11-04T09:49:28.148Z,8.94
2016-11-04T09:50:38.459Z,8.9
2016-11-04T09:51:48.488Z,9.05
2016-11-04T09:52:58.812Z,8.97
2016-11-04T09:54:08.824Z,8.92
2016-11-04T09:55:19.135Z,8.95
2016-11-04T09:56:29.133Z,8.87
2016-11-04T09:57:39.429Z,8.8
2016-11-04T09:58:49.774Z,8.83
2016-11-04T10:00:00.062Z,8.79
2016-11-04T10:01:10.390Z,8.77
2016-11-04T10:02:20.697Z,8.9
2016-11-04T10:03:30.400Z,9
2016-11-04T10:04:40.716Z,8.97
2016-11-04T10:05:51.028Z,9.12
2016-11-04T10:07:01.007Z,9.03
2016-11-04T10:08:11.325Z,9.11
2016-11-04T10:09:21.644Z,9.14
2016-11-04T10:10:31.942Z,9.05
2016-11-04T10:11:41.953Z,9.14
2016-11-04T10:12:52.282Z,9.19
2016-11-04T10:14:01.962Z,9.19
2016-11-04T10:15:12.267Z,9.17
2016-11-04T10:16:22.254Z,9.09
2016-11-04T10:17:32.559Z,9.05
2016-11-04T10:18:42.233Z,8.9
2016-11-04T10:19:52.222Z,8.95
2016-11-04T10:21:02.564Z,9
2016-11-04T10:22:12.892Z,8.92
2016-11-04T10:23:22.884Z,8.95
2016-11-04T10:24:32.887Z,8.92
2016-11-04T10:25:42.879Z,9.01
2016-11-04T10:26:52.918Z,8.92
2016-11-04T10:28:03.244Z,9.05
2016-11-04T10:29:13.567Z,9.04
2016-11-04T10:30:23.866Z,9.11
2016-11-04T10:31:34.180Z,9.09
2016-11-04T10:32:44.502Z,9.24
2016-11-04T10:33:54.491Z,9.29
2016-11-04T10:35:04.508Z,9.41
2016-11-04T10:36:14.512Z,9.44
2016-11-04T10:37:25.992Z,9.44
2016-11-04T10:38:35.977Z,9.59
2016-11-04T10:39:45.967Z,9.42
2016-11-04T10:40:56.278Z,9.56
2016-11-04T10:42:06.266Z,9.59
2016-11-04T10:43:16.254Z,9.56
2016-11-04T10:44:26.272Z,9.63
2016-11-04T10:45:36.559Z,9.6
2016-11-04T10:46:46.871Z,9.64
2016-11-04T10:47:57.202Z,9.63
2016-11-04T10:49:07.200Z,9.64
2016-11-04T10:50:17.556Z,9.77
2016-11-04T10:51:27.901Z,9.82
2016-11-04T10:52:37.892Z,9.75
2016-11-04T10:53:47.883Z,9.84
2016-11-04T10:54:58.198Z,10.02
2016-11-04T10:56:08.503Z,10.14
2016-11-04T10:57:18.832Z,10.36
2016-11-04T10:58:29.146Z,10.58
2016-11-04T10:59:38.830Z,10.66
2016-11-04T11:00:48.847Z,10.79
2016-11-04T11:01:58.857Z,10.66
2016-11-04T11:03:09.183Z,10.72
2016-11-04T11:04:19.518Z,10.63
2016-11-04T11:05:28.890Z,10.51
2016-11-04T11:06:39.201Z,10.52
2016-11-04T11:07:49.186Z,10.41
2016-11-04T11:08:59.180Z,10.47
2016-11-04T11:10:09.504Z,10.51
2016-11-04T11:11:19.482Z,10.49
2016-11-04T11:12:29.794Z,10.51
2016-11-04T11:13:40.133Z,10.55
2016-11-04T11:14:50.152Z,10.46
2016-11-04T11:16:00.473Z,10.52
2016-11-04T11:17:10.774Z,10.51
2016-11-04T11:18:21.072Z,10.61
2016-11-04T11:19:30.760Z,10.66
2016-11-04T11:20:40.752Z,10.79
2016-11-04T11:21:50.441Z,10.76
2016-11-04T11:23:00.740Z,10.75
2016-11-04T11:24:11.062Z,10.77
2016-11-04T11:25:21.364Z,10.75
2016-11-04T11:26:31.033Z,10.65
2016-11-04T11:27:41.046Z,10.52
2016-11-04T11:28:51.019Z,10.39
2016-11-04T11:30:01.019Z,10.38
2016-11-04T11:31:11.320Z,10.32
2016-11-04T11:32:21.293Z,10.32
2016-11-04T11:33:30.971Z,10.31
2016-11-04T11:34:40.647Z,10.39
2016-11-04T11:35:50.647Z,10.33
2016-11-04T11:37:00.645Z,10.39
2016-11-04T11:38:10.632Z,10.54
2016-11-04T11:39:20.669Z,10.54
2016-11-04T11:40:30.673Z,10.51
2016-11-04T11:41:40.368Z,10.61
2016-11-04T11:42:50.668Z,10.49
2016-11-04T11:44:00.977Z,10.59
2016-11-04T11:45:11.281Z,10.52
2016-11-04T11:46:21.304Z,10.63
2016-11-04T11:47:31.623Z,10.61
2016-11-04T11:48:41.313Z,10.7
2016-11-04T11:49:51.353Z,10.8
2016-11-04T11:51:01.402Z,10.76
2016-11-04T11:52:11.710Z,10.79
2016-11-04T11:53:22.049Z,10.85
2016-11-04T11:54:32.353Z,11.02
2016-11-04T11:55:42.348Z,11.05
2016-11-04T11:56:51.737Z,11.12
2016-11-04T11:58:01.740Z,11.23
2016-11-04T11:59:11.713Z,11.39
2016-11-04T12:00:21.412Z,11.45
2016-11-04T12:01:31.089Z,11.48
2016-11-04T12:02:41.083Z,11.49
2016-11-04T12:03:51.073Z,11.56
2016-11-04T12:05:01.395Z,11.51
2016-11-04T12:06:11.113Z,11.53
2016-11-04T12:07:21.091Z,11.53
2016-11-04T12:08:31.086Z,11.57
2016-11-04T12:09:41.377Z,11.73
2016-11-04T12:10:51.668Z,11.71
2016-11-04T12:12:01.675Z,11.7
2016-11-04T12:13:12.001Z,11.73
2016-11-04T12:14:22.000Z,11.79
2016-11-04T12:15:31.996Z,11.85
2016-11-04T12:16:42.046Z,11.82
2016-11-04T12:17:52.364Z,11.91
2016-11-04T12:19:02.722Z,11.94
2016-11-04T12:20:12.733Z,11.94
2016-11-04T12:21:22.421Z,12.03
2016-11-04T12:22:32.740Z,12.03
2016-11-04T12:23:43.037Z,12.18
2016-11-04T12:24:53.316Z,12.22
2016-11-04T12:26:03.317Z,12.28
2016-11-04T12:27:13.586Z,12.45
2016-11-04T12:28:23.901Z,12.51
2016-11-04T12:29:33.580Z,12.47
2016-11-04T12:30:43.297Z,12.62
2016-11-04T12:31:53.617Z,12.63
2016-11-04T12:33:03.614Z,12.77
2016-11-04T12:34:13.587Z,12.7
2016-11-04T12:35:23.644Z,12.63
2016-11-04T12:36:33.334Z,12.63
2016-11-04T12:37:43.346Z,12.59
2016-11-04T12:38:53.634Z,12.65
2016-11-04T12:40:03.980Z,12.58
2016-11-04T12:41:13.973Z,12.59
2016-11-04T12:42:24.281Z,12.58
2016-11-04T12:43:34.269Z,12.45
2016-11-04T12:44:44.561Z,12.51
2016-11-04T12:45:53.624Z,12.47
2016-11-04T12:47:03.607Z,12.33
2016-11-04T12:48:13.585Z,12.31
2016-11-04T12:49:23.592Z,12.26
2016-11-04T12:50:33.880Z,12.34
2016-11-04T12:51:43.859Z,12.31
2016-11-04T12:52:54.177Z,12.28
2016-11-04T12:54:04.522Z,12.44
2016-11-04T12:55:14.497Z,12.4
2016-11-04T12:56:24.778Z,12.51
2016-11-04T12:57:35.096Z,12.58
2016-11-04T12:58:45.083Z,12.66
2016-11-04T12:59:55.404Z,12.63
2016-11-04T13:01:05.129Z,12.63
2016-11-04T13:02:15.109Z,12.7
2016-11-04T13:03:25.458Z,12.73
2016-11-04T13:04:35.760Z,12.77
2016-11-04T13:05:46.047Z,12.77
2016-11-04T13:06:56.024Z,12.69
2016-11-04T13:08:06.371Z,12.59
2016-11-04T13:09:16.366Z,12.69
2016-11-04T13:10:26.673Z,12.65
2016-11-04T13:11:36.664Z,12.59
2016-11-04T13:12:46.664Z,12.52
2016-11-04T13:13:56.974Z,12.55
2016-11-04T13:15:07.315Z,12.56
2016-11-04T13:16:16.988Z,12.56
2016-11-04T13:17:27.302Z,12.55
2016-11-04T13:18:37.298Z,12.61
2016-11-04T13:19:47.609Z,12.53
2016-11-04T13:20:57.906Z,12.53
2016-11-04T13:22:07.571Z,12.51
2016-11-04T13:23:17.891Z,12.48
2016-11-04T13:24:28.208Z,12.51
2016-11-04T13:25:38.216Z,12.55
2016-11-04T13:26:47.912Z,12.58
2016-11-04T13:27:58.218Z,12.48
2016-11-04T13:29:08.502Z,12.58
2016-11-04T13:30:18.510Z,12.58
2016-11-04T13:31:28.784Z,12.58
2016-11-04T13:32:38.774Z,12.56
2016-11-04T13:33:48.749Z,12.53
2016-11-04T13:34:59.044Z,12.43
2016-11-04T13:36:09.082Z,12.41
2016-11-04T13:37:19.072Z,12.38
2016-11-04T13:38:28.825Z,12.28
2016-11-04T13:39:38.502Z,12.29
2016-11-04T13:40:48.818Z,12.26
2016-11-04T13:41:59.142Z,12.25
2016-11-04T13:43:09.452Z,12.18
2016-11-04T13:44:19.422Z,12.19
2016-11-04T13:45:29.719Z,12.15
2016-11-04T13:46:39.706Z,12.16
2016-11-04T13:47:50.019Z,12.18
2016-11-04T13:48:59.729Z,12.11
2016-11-04T13:50:10.035Z,12.08
2016-11-04T13:51:19.408Z,11.91
2016-11-04T13:52:29.397Z,11.85
2016-11-04T13:53:39.434Z,11.88
2016-11-04T13:54:49.423Z,11.85
2016-11-04T13:55:59.722Z,11.71
2016-11-04T13:57:10.053Z,11.78
2016-11-04T13:58:19.743Z,11.68
2016-11-04T13:59:29.738Z,11.7
2016-11-04T14:00:39.753Z,11.68
2016-11-04T14:01:49.737Z,11.7
2016-11-04T14:03:00.032Z,11.63
2016-11-04T14:04:10.026Z,11.61
2016-11-04T14:05:20.324Z,11.66
2016-11-04T14:06:30.639Z,11.64
2016-11-04T14:08:51.831Z,11.66
2016-11-04T14:10:01.516Z,11.66
2016-11-04T14:11:11.817Z,11.66
2016-11-04T14:12:22.129Z,11.66
2016-11-04T14:13:32.156Z,11.63
2016-11-04T14:14:42.464Z,11.59
2016-11-04T14:15:52.440Z,11.56
2016-11-04T14:17:02.747Z,11.49
2016-11-04T14:18:13.047Z,11.51
2016-11-04T14:19:23.342Z,11.46
2016-11-04T14:20:33.632Z,11.53
2016-11-04T14:21:43.923Z,11.67
2016-11-04T14:22:53.943Z,11.66
2016-11-04T14:24:03.617Z,11.67
2016-11-04T14:25:13.592Z,11.63
2016-11-04T14:26:23.596Z,11.59
2016-11-04T14:27:33.591Z,11.68
2016-11-04T14:28:43.893Z,11.64
2016-11-04T14:29:53.883Z,11.73
2016-11-04T14:31:03.556Z,11.76
2016-11-04T14:32:13.872Z,11.67
2016-11-04T14:33:23.859Z,11.71
2016-11-04T14:34:33.851Z,11.68
2016-11-04T14:35:44.170Z,11.57
2016-11-04T14:36:53.843Z,11.51
2016-11-04T14:38:03.892Z,11.45
2016-11-04T14:39:13.862Z,11.52
2016-11-04T14:40:24.159Z,11.39
2016-11-04T14:41:34.153Z,11.41
2016-11-04T14:42:44.423Z,11.45
2016-11-04T14:43:54.434Z,11.39
2016-11-04T14:45:04.112Z,11.35
2016-11-04T14:46:14.111Z,11.41
2016-11-04T14:47:24.090Z,11.46
2016-11-04T14:48:34.094Z,11.35
2016-11-04T14:49:44.068Z,11.38
2016-11-04T14:50:54.390Z,11.16
2016-11-04T14:52:04.706Z,11.23
2016-11-04T14:53:15.022Z,11.24
2016-11-04T14:54:25.009Z,11.24
2016-11-04T14:55:35.364Z,11.12
2016-11-04T14:56:45.342Z,11.12
2016-11-04T14:57:55.028Z,11
2016-11-04T14:59:05.351Z,10.91
2016-11-04T15:00:15.340Z,10.84
2016-11-04T15:01:25.669Z,10.88
2016-11-04T15:02:35.673Z,10.79
2016-11-04T15:03:46.009Z,10.75
2016-11-04T15:04:55.981Z,10.75
2016-11-04T15:06:05.991Z,10.73
2016-11-04T15:07:16.311Z,10.75
2016-11-04T15:08:26.308Z,10.66
2016-11-04T15:09:36.285Z,10.66
2016-11-04T15:10:46.293Z,10.57
2016-11-04T15:11:56.620Z,10.58
2016-11-04T15:13:06.595Z,10.57
2016-11-04T15:14:16.616Z,10.51
2016-11-04T15:15:26.599Z,10.39
2016-11-04T15:16:36.321Z,10.47
2016-11-04T15:17:46.020Z,10.39
2016-11-04T15:18:56.354Z,10.31
2016-11-04T15:20:06.647Z,10.23
2016-11-04T15:21:16.331Z,10.18
2016-11-04T15:22:26.645Z,10.18
2016-11-04T15:23:36.950Z,10.15
2016-11-04T15:24:46.931Z,10.15
2016-11-04T15:25:56.663Z,10.02
2016-11-04T15:27:06.993Z,9.93
2016-11-04T15:28:17.313Z,9.95
2016-11-04T15:29:27.314Z,9.84
2016-11-04T15:30:37.590Z,9.88
2016-11-04T15:31:47.267Z,9.81
2016-11-04T15:32:57.241Z,9.74
2016-11-04T15:34:07.241Z,9.71
2016-11-04T15:35:17.245Z,9.62
2016-11-04T15:36:27.548Z,9.63
2016-11-04T15:37:37.844Z,9.6
2016-11-04T15:38:47.534Z,9.6
2016-11-04T15:39:57.830Z,9.56
2016-11-04T15:41:07.831Z,9.59
2016-11-04T15:42:18.126Z,9.59
2016-11-04T15:43:28.421Z,9.52
2016-11-04T15:44:38.401Z,9.52
2016-11-04T15:45:48.091Z,9.42
2016-11-04T15:46:58.373Z,9.41
2016-11-04T15:48:08.356Z,9.35
2016-11-04T15:49:18.663Z,9.35
2016-11-04T15:50:28.952Z,9.38
2016-11-04T15:51:38.923Z,9.26
2016-11-04T15:52:48.611Z,9.2
2016-11-04T15:53:58.606Z,9.24
2016-11-04T15:55:08.655Z,9.24
2016-11-04T15:56:18.962Z,9.24
2016-11-04T15:57:29.480Z,9.16
2016-11-04T15:58:39.491Z,9.2